createdAt,value
2019-03-04T00:01:40.129Z,65.60
2019-03-04T00:04:08.596Z,65.50
2019-03-04T00:06:36.995Z,65.50
2019-03-04T00:09:06.391Z,65.50
2019-03-04T00:11:34.885Z,65.70
2019-03-04T00:14:03.456Z,66.00
2019-03-04T00:16:31.888Z,65.90
2019-03-04T00:19:00.319Z,66.00
2019-03-04T00:21:28.741Z,66.00
2019-03-04T00:23:57.179Z,66.20
2019-03-04T00:26:25.595Z,65.80
2019-03-04T00:28:54.040Z,65.60
2019-03-04T00:31:22.454Z,66.00
2019-03-04T00:33:51.071Z,66.30
2019-03-04T00:36:19.546Z,66.20
2019-03-04T00:38:47.977Z,66.20
2019-03-04T00:41:16.390Z,66.30
2019-03-04T00:43:44.818Z,66.30
2019-03-04T00:46:13.251Z,66.60
2019-03-04T00:48:41.674Z,67.50
2019-03-04T00:51:10.107Z,67.70
2019-03-04T00:53:38.540Z,67.70
2019-03-04T00:56:06.959Z,67.70
2019-03-04T00:58:35.395Z,67.50
2019-03-04T01:01:03.884Z,67.20
2019-03-04T01:03:32.909Z,67.90
2019-03-04T01:06:03.386Z,68.30
2019-03-04T01:08:31.500Z,68.00
2019-03-04T01:11:00.168Z,68.30
2019-03-04T01:13:28.663Z,68.30
2019-03-04T01:15:57.107Z,68.30
2019-03-04T01:18:25.600Z,68.70
2019-03-04T01:20:54.112Z,68.50
2019-03-04T01:23:22.536Z,69.10
2019-03-04T01:25:50.978Z,69.10
2019-03-04T01:28:19.398Z,69.50
2019-03-04T01:30:47.809Z,69.70
2019-03-04T01:33:16.246Z,69.40
2019-03-04T01:35:44.691Z,69.70
2019-03-04T01:38:13.131Z,69.80
2019-03-04T01:40:41.580Z,69.70
2019-03-04T01:43:10.012Z,69.50
2019-03-04T01:45:38.438Z,69.50
2019-03-04T01:48:06.883Z,69.30
2019-03-04T01:50:35.303Z,69.80
2019-03-04T01:53:03.749Z,69.90
2019-03-04T01:55:32.151Z,70.20
2019-03-04T01:58:00.587Z,70.90
2019-03-04T02:00:29.009Z,70.90
2019-03-04T02:02:57.513Z,71.60
2019-03-04T02:05:26.263Z,72.10
2019-03-04T02:07:54.709Z,72.00
2019-03-04T02:10:23.181Z,72.40
2019-03-04T02:12:51.622Z,72.90
2019-03-04T02:15:21.570Z,73.10
2019-03-04T02:17:50.003Z,73.10
2019-03-04T02:20:18.777Z,73.70
2019-03-04T02:22:47.658Z,74.00
2019-03-04T02:25:35.003Z,72.90
2019-03-04T02:28:03.442Z,73.70
2019-03-04T02:30:31.871Z,73.20
2019-03-04T02:33:00.304Z,72.50
2019-03-04T02:35:28.720Z,72.10
2019-03-04T02:37:57.167Z,72.40
2019-03-04T02:40:25.587Z,72.50
2019-03-04T02:42:54.024Z,72.30
2019-03-04T02:45:22.589Z,72.90
2019-03-04T02:47:51.007Z,73.50
2019-03-04T02:50:19.439Z,73.10
2019-03-04T02:52:47.848Z,73.60
2019-03-04T02:55:16.815Z,73.50
2019-03-04T02:57:45.227Z,73.50
2019-03-04T03:00:18.066Z,73.30
2019-03-04T03:02:46.555Z,73.40
2019-03-04T03:05:15.118Z,73.00
2019-03-04T03:07:43.627Z,73.30
2019-03-04T03:10:14.168Z,74.40
2019-03-04T03:12:42.787Z,75.10
2019-03-04T03:15:13.841Z,75.80
2019-03-04T03:17:42.264Z,75.80
2019-03-04T03:20:14.418Z,76.20
2019-03-04T03:22:42.964Z,76.40
2019-03-04T03:25:12.645Z,76.50
2019-03-04T03:27:41.056Z,76.60
2019-03-04T03:30:18.245Z,76.20
2019-03-04T03:32:46.737Z,75.90
2019-03-04T03:35:15.288Z,76.10
2019-03-04T03:37:43.704Z,76.30
2019-03-04T03:40:14.535Z,76.00
2019-03-04T03:42:43.023Z,76.50
2019-03-04T03:45:11.904Z,76.80
2019-03-04T03:47:40.566Z,76.60
2019-03-04T03:50:11.308Z,76.30
2019-03-04T03:52:39.817Z,75.90
2019-03-04T03:55:10.655Z,76.10
2019-03-04T03:57:39.105Z,76.30
2019-03-04T04:00:16.519Z,76.00
2019-03-04T04:02:44.950Z,75.80
2019-03-04T04:05:13.506Z,75.40
2019-03-04T04:07:42.020Z,75.30
2019-03-04T04:10:13.388Z,75.20
2019-03-04T04:12:41.923Z,75.20
2019-03-04T04:15:12.069Z,75.30
2019-03-04T04:17:40.582Z,75.10
2019-03-04T04:20:10.027Z,74.70
2019-03-04T04:22:38.459Z,75.00
2019-03-04T04:25:08.297Z,75.00
2019-03-04T04:27:36.888Z,74.60
2019-03-04T04:30:11.670Z,73.30
2019-03-04T04:32:40.270Z,71.50
2019-03-04T04:35:08.910Z,70.70
2019-03-04T04:37:37.343Z,70.70
2019-03-04T04:40:08.614Z,71.00
2019-03-04T04:42:37.055Z,71.10
2019-03-04T04:45:07.498Z,71.50
2019-03-04T04:47:35.979Z,71.70
2019-03-04T04:50:13.452Z,71.70
2019-03-04T04:52:41.902Z,71.40
2019-03-04T04:55:10.457Z,71.20
2019-03-04T04:57:38.882Z,70.90
2019-03-04T05:00:10.677Z,69.90
2019-03-04T05:02:39.183Z,68.20
2019-03-04T05:05:07.999Z,66.20
2019-03-04T05:07:36.407Z,66.00
2019-03-04T05:10:07.921Z,65.60
2019-03-04T05:12:36.326Z,64.40
2019-03-04T05:15:07.499Z,64.40
2019-03-04T05:17:35.907Z,63.60
2019-03-04T05:20:06.950Z,63.40
2019-03-04T05:22:35.387Z,62.90
2019-03-04T05:25:04.294Z,62.70
2019-03-04T05:27:32.774Z,62.90
2019-03-04T05:30:01.220Z,62.40
2019-03-04T05:32:29.625Z,62.70
2019-03-04T05:34:58.070Z,62.40
2019-03-04T05:37:26.488Z,62.50
2019-03-04T05:39:54.938Z,62.40
2019-03-04T05:42:24.603Z,62.40
2019-03-04T05:44:53.222Z,62.40
2019-03-04T05:47:21.642Z,62.40
2019-03-04T05:49:50.078Z,63.00
2019-03-04T05:52:18.508Z,62.80
2019-03-04T05:54:47.415Z,63.00
2019-03-04T05:57:15.902Z,63.00
2019-03-04T05:59:44.315Z,63.10
2019-03-04T06:02:12.754Z,63.70
2019-03-04T06:04:41.254Z,63.60
2019-03-04T06:07:11.298Z,63.60
2019-03-04T06:09:39.782Z,62.90
2019-03-04T06:12:08.224Z,62.80
2019-03-04T06:14:36.643Z,62.90
2019-03-04T06:17:05.088Z,62.60
2019-03-04T06:19:35.048Z,62.50
2019-03-04T06:22:05.127Z,62.70
2019-03-04T06:24:33.551Z,62.60
2019-03-04T06:27:02.854Z,62.40
2019-03-04T06:29:31.259Z,62.40
2019-03-04T06:31:59.699Z,62.10
2019-03-04T06:34:28.119Z,61.40
2019-03-04T06:36:56.549Z,61.00
2019-03-04T06:39:24.975Z,60.40
2019-03-04T06:41:53.411Z,60.30
2019-03-04T06:44:21.890Z,60.30
2019-03-04T06:46:50.311Z,60.30
2019-03-04T06:49:18.751Z,60.60
2019-03-04T06:51:47.259Z,60.50
2019-03-04T06:54:33.691Z,60.20
2019-03-04T06:57:08.375Z,60.30
2019-03-04T06:59:48.831Z,60.20
2019-03-04T07:02:40.890Z,60.30
2019-03-04T07:05:36.078Z,60.20
2019-03-04T07:08:04.695Z,60.30
2019-03-04T07:10:33.124Z,23.50
2019-03-04T07:13:01.574Z,23.00
2019-03-04T07:15:30.058Z,23.00
2019-03-04T07:17:58.495Z,22.80
2019-03-04T07:20:26.912Z,23.10
2019-03-04T07:22:55.348Z,22.80
2019-03-04T07:25:23.835Z,22.70
2019-03-04T07:27:52.271Z,22.60
2019-03-04T07:30:21.076Z,22.40
2019-03-04T07:32:49.519Z,22.30
2019-03-04T07:35:17.930Z,22.30
2019-03-04T07:37:46.353Z,22.40
2019-03-04T07:40:20.064Z,23.30
2019-03-04T07:42:48.483Z,22.70
2019-03-04T07:45:16.991Z,23.00
2019-03-04T07:47:45.418Z,22.50
2019-03-04T07:50:14.007Z,22.10
2019-03-04T07:52:42.418Z,22.20
2019-03-04T07:55:11.022Z,22.20
2019-03-04T07:57:39.445Z,22.50
2019-03-04T08:00:10.972Z,22.20
2019-03-04T08:02:39.399Z,21.80
2019-03-04T08:05:10.354Z,21.40
2019-03-04T08:07:43.766Z,22.00
2019-03-04T08:10:35.954Z,21.40
2019-03-04T08:13:07.788Z,21.70
2019-03-04T08:15:37.971Z,20.80
2019-03-04T08:18:06.474Z,21.10
2019-03-04T08:20:34.988Z,20.90
2019-03-04T08:23:04.968Z,20.90
2019-03-04T08:25:33.742Z,21.30
2019-03-04T08:28:02.223Z,21.00
2019-03-04T08:30:30.638Z,20.90
2019-03-04T08:32:59.167Z,21.10
2019-03-04T08:35:27.594Z,21.20
2019-03-04T08:37:56.045Z,21.00
2019-03-04T08:40:24.462Z,21.00
2019-03-04T08:42:52.884Z,21.10
2019-03-04T08:45:21.366Z,20.80
2019-03-04T08:47:49.827Z,19.00
2019-03-04T08:50:18.782Z,19.00
2019-03-04T08:52:47.243Z,19.20
2019-03-04T08:55:17.551Z,19.40
2019-03-04T08:57:46.631Z,19.40
2019-03-04T09:00:17.667Z,19.30
2019-03-04T09:02:46.314Z,19.70
2019-03-04T09:05:14.989Z,19.80
2019-03-04T09:07:43.675Z,20.00
2019-03-04T09:10:15.306Z,20.30
2019-03-04T09:12:43.751Z,20.60
2019-03-04T09:15:13.699Z,20.70
2019-03-04T09:17:42.172Z,20.70
2019-03-04T09:20:12.293Z,20.70
2019-03-04T09:22:40.727Z,20.80
2019-03-04T09:25:30.665Z,21.30
2019-03-04T09:27:59.365Z,21.70
2019-03-04T09:30:27.943Z,22.20
2019-03-04T09:32:56.430Z,24.50
2019-03-04T09:35:24.940Z,24.90
2019-03-04T09:37:53.350Z,25.40
2019-03-04T09:40:24.864Z,26.10
2019-03-04T09:42:53.274Z,26.10
2019-03-04T09:45:21.715Z,26.50
2019-03-04T09:47:50.133Z,26.80
2019-03-04T09:50:20.792Z,27.10
2019-03-04T09:52:49.211Z,27.40
2019-03-04T09:55:18.716Z,27.70
2019-03-04T09:57:47.145Z,27.50
2019-03-04T10:00:33.059Z,28.10
2019-03-04T10:03:28.315Z,29.10
2019-03-04T10:06:14.797Z,30.00
2019-03-04T10:09:10.118Z,29.20
2019-03-04T10:11:59.650Z,28.20
2019-03-04T10:14:42.959Z,26.90
2019-03-04T10:17:39.771Z,27.10
2019-03-04T10:20:27.468Z,25.30
2019-03-04T10:22:59.011Z,24.40
2019-03-04T10:25:30.523Z,23.00
2019-03-04T10:28:07.691Z,23.00
2019-03-04T10:30:39.264Z,22.80
2019-03-04T10:33:29.848Z,22.50
2019-03-04T10:36:03.967Z,22.30
2019-03-04T10:38:47.258Z,22.10
2019-03-04T10:41:27.667Z,21.90
2019-03-04T10:44:27.494Z,22.10
2019-03-04T10:46:57.292Z,21.40
2019-03-04T10:49:26.850Z,20.90
2019-03-04T10:51:55.364Z,21.20
2019-03-04T10:54:25.637Z,20.00
2019-03-04T10:56:54.157Z,20.00
2019-03-04T10:59:22.562Z,19.90
2019-03-04T11:01:51.009Z,19.60
2019-03-04T11:04:19.419Z,19.30
2019-03-04T11:06:47.989Z,19.00
2019-03-04T11:09:16.566Z,18.80
2019-03-04T11:11:45.067Z,18.60
2019-03-04T11:14:13.598Z,18.50
2019-03-04T11:16:42.032Z,17.90
2019-03-04T11:19:10.487Z,17.50
2019-03-04T11:21:38.900Z,17.40
2019-03-04T11:24:08.235Z,17.40
2019-03-04T11:26:36.865Z,17.40
2019-03-04T11:29:06.027Z,17.40
2019-03-04T11:31:34.442Z,17.70
2019-03-04T11:34:02.899Z,18.20
2019-03-04T11:36:31.307Z,18.10
2019-03-04T11:39:04.615Z,18.30
2019-03-04T11:41:33.055Z,18.20
2019-03-04T11:44:01.501Z,17.90
2019-03-04T11:46:29.918Z,17.70
2019-03-04T11:48:58.457Z,18.20
2019-03-04T11:51:26.876Z,18.10
2019-03-04T11:53:55.391Z,18.20
2019-03-04T11:56:23.823Z,18.40
2019-03-04T11:58:52.257Z,18.40
2019-03-04T12:01:25.324Z,18.50
2019-03-04T12:03:53.774Z,18.10
2019-03-04T12:06:22.219Z,18.10
2019-03-04T12:08:50.643Z,18.10
2019-03-04T12:11:19.085Z,17.80
2019-03-04T12:13:47.507Z,17.70
2019-03-04T12:16:15.951Z,17.80
2019-03-04T12:18:44.418Z,17.70
2019-03-04T12:21:12.857Z,17.80
2019-03-04T12:23:41.298Z,18.10
2019-03-04T12:26:09.869Z,18.00
2019-03-04T12:28:38.282Z,17.90
2019-03-04T12:31:06.969Z,17.90
2019-03-04T12:33:35.395Z,17.60
2019-03-04T12:36:03.917Z,17.80
2019-03-04T12:38:33.868Z,17.80
2019-03-04T12:41:02.369Z,18.10
2019-03-04T12:43:30.795Z,17.90
2019-03-04T12:45:59.238Z,18.20
2019-03-04T12:48:27.742Z,18.40
2019-03-04T12:50:56.176Z,18.30
2019-03-04T12:53:24.598Z,18.40
2019-03-04T12:55:53.047Z,18.70
2019-03-04T12:58:21.495Z,18.50
2019-03-04T13:00:49.979Z,18.50
2019-03-04T13:03:20.751Z,18.60
2019-03-04T13:05:49.207Z,18.60
2019-03-04T13:08:17.732Z,18.70
2019-03-04T13:10:46.228Z,18.40
2019-03-04T13:13:14.658Z,18.40
2019-03-04T13:15:43.152Z,18.40
2019-03-04T13:18:13.403Z,18.40
2019-03-04T13:20:42.071Z,18.20
2019-03-04T13:23:10.511Z,18.10
2019-03-04T13:25:38.930Z,17.90
2019-03-04T13:28:08.456Z,18.00
2019-03-04T13:30:40.975Z,18.00
2019-03-04T13:33:11.299Z,18.00
2019-03-04T13:35:41.077Z,17.90
2019-03-04T13:38:09.592Z,17.80
2019-03-04T13:40:38.020Z,17.70
2019-03-04T13:43:06.734Z,17.80
2019-03-04T13:45:36.882Z,17.60
2019-03-04T13:48:05.400Z,17.70
2019-03-04T13:50:36.063Z,17.70
2019-03-04T13:53:05.053Z,17.40
2019-03-04T13:55:33.468Z,17.80
2019-03-04T13:58:03.644Z,17.80
2019-03-04T14:00:34.487Z,17.90
2019-03-04T14:03:02.943Z,17.50
2019-03-04T14:05:31.371Z,17.80
2019-03-04T14:07:59.927Z,17.50
2019-03-04T14:10:39.676Z,17.50
2019-03-04T14:13:08.259Z,18.20
2019-03-04T14:15:41.751Z,18.00
2019-03-04T14:18:10.158Z,17.80
2019-03-04T14:20:38.599Z,17.60
2019-03-04T14:23:07.223Z,17.80
2019-03-04T14:25:35.666Z,17.80
2019-03-04T14:28:04.275Z,17.90
2019-03-04T14:30:32.711Z,17.90
2019-03-04T14:33:01.139Z,17.60
2019-03-04T14:35:29.636Z,17.70
2019-03-04T14:37:58.055Z,17.90
2019-03-04T14:40:26.634Z,18.20
2019-03-04T14:42:55.396Z,18.10
2019-03-04T14:45:25.542Z,18.20
2019-03-04T14:47:54.158Z,18.20
2019-03-04T14:50:23.081Z,18.30
2019-03-04T14:52:51.572Z,18.10
2019-03-04T14:55:26.913Z,18.30
2019-03-04T14:57:55.405Z,18.30
2019-03-04T15:00:29.368Z,18.60
2019-03-04T15:02:57.800Z,18.30
2019-03-04T15:05:26.231Z,18.40
2019-03-04T15:07:55.687Z,18.20
2019-03-04T15:10:24.587Z,18.00
2019-03-04T15:12:53.087Z,16.10
2019-03-04T15:15:26.401Z,16.30
2019-03-04T15:17:54.844Z,16.30
2019-03-04T15:20:24.998Z,16.10
2019-03-04T15:22:53.451Z,15.90
2019-03-04T15:25:25.156Z,15.30
2019-03-04T15:27:55.343Z,15.50
2019-03-04T15:30:25.325Z,15.30
2019-03-04T15:32:53.831Z,15.50
2019-03-04T15:35:22.247Z,15.50
2019-03-04T15:37:50.683Z,15.40
2019-03-04T15:40:19.103Z,15.40
2019-03-04T15:42:47.551Z,15.00
2019-03-04T15:45:16.038Z,14.70
2019-03-04T15:47:44.498Z,14.40
2019-03-04T15:50:13.362Z,14.50
2019-03-04T15:52:41.870Z,14.50
2019-03-04T15:55:13.279Z,14.30
2019-03-04T15:57:41.795Z,14.40
2019-03-04T16:00:15.465Z,14.10
2019-03-04T16:02:44.078Z,13.90
2019-03-04T16:05:15.698Z,13.70
2019-03-04T16:07:44.278Z,13.80
2019-03-04T16:10:20.087Z,13.80
2019-03-04T16:12:48.550Z,15.50
2019-03-04T16:15:20.711Z,15.40
2019-03-04T16:17:49.309Z,15.40
2019-03-04T16:20:19.059Z,15.30
2019-03-04T16:22:48.155Z,15.30
2019-03-04T16:25:16.759Z,15.40
2019-03-04T16:27:45.255Z,15.40
2019-03-04T16:30:19.118Z,15.60
2019-03-04T16:32:47.614Z,15.30
2019-03-04T16:35:16.126Z,15.40
2019-03-04T16:37:44.700Z,15.80
2019-03-04T16:40:16.209Z,16.00
2019-03-04T16:42:44.803Z,16.60
2019-03-04T16:45:15.760Z,16.70
2019-03-04T16:47:44.330Z,17.00
2019-03-04T16:50:14.907Z,17.60
2019-03-04T16:52:45.183Z,18.40
2019-03-04T16:55:15.281Z,19.90
2019-03-04T16:57:43.759Z,24.70
2019-03-04T17:00:15.191Z,30.20
2019-03-04T17:02:43.675Z,63.70
2019-03-04T17:05:14.262Z,65.40
2019-03-04T17:07:43.027Z,67.50
2019-03-04T17:10:13.610Z,68.30
2019-03-04T17:12:42.275Z,69.10
2019-03-04T17:15:13.350Z,70.20
2019-03-04T17:17:41.901Z,70.20
2019-03-04T17:20:12.406Z,71.20
2019-03-04T17:22:41.050Z,71.10
2019-03-04T17:25:12.640Z,72.80
2019-03-04T17:27:41.532Z,72.90
2019-03-04T17:30:12.813Z,73.50
2019-03-04T17:32:43.299Z,72.70
2019-03-04T17:35:14.247Z,73.70
2019-03-04T17:37:42.666Z,74.60
2019-03-04T17:40:14.167Z,73.70
2019-03-04T17:42:42.590Z,74.90
2019-03-04T17:45:13.168Z,74.60
2019-03-04T17:47:41.726Z,73.60
2019-03-04T17:50:28.183Z,72.60
2019-03-04T17:52:56.684Z,72.50
2019-03-04T17:55:25.192Z,70.80
2019-03-04T17:57:53.681Z,70.80
2019-03-04T18:00:22.167Z,71.60
2019-03-04T18:02:50.606Z,70.70
2019-03-04T18:05:19.108Z,70.00
2019-03-04T18:07:47.623Z,70.80
2019-03-04T18:10:19.480Z,71.60
2019-03-04T18:12:47.994Z,69.60
2019-03-04T18:15:24.416Z,70.10
2019-03-04T18:17:52.955Z,69.70
2019-03-04T18:20:21.398Z,69.80
2019-03-04T18:22:49.844Z,71.40
2019-03-04T18:25:21.330Z,73.10
2019-03-04T18:27:52.929Z,73.50
2019-03-04T18:30:30.272Z,74.10
2019-03-04T18:33:27.038Z,74.30
2019-03-04T18:36:17.918Z,75.40
2019-03-04T18:39:04.679Z,73.70
2019-03-04T18:41:52.139Z,73.20
2019-03-04T18:44:29.362Z,73.50
2019-03-04T18:47:19.090Z,72.40
2019-03-04T18:49:47.579Z,73.20
2019-03-04T18:52:15.994Z,73.30
2019-03-04T18:54:44.524Z,72.70
2019-03-04T18:57:12.977Z,71.60
2019-03-04T18:59:41.609Z,71.40
2019-03-04T19:02:10.187Z,71.50
2019-03-04T19:04:38.762Z,71.20
2019-03-04T19:07:07.181Z,71.10
2019-03-04T19:09:35.694Z,70.20
2019-03-04T19:12:04.211Z,71.20
2019-03-04T19:14:32.669Z,71.20
2019-03-04T19:17:01.083Z,71.50
2019-03-04T19:19:29.671Z,70.80
2019-03-04T19:21:59.634Z,71.00
2019-03-04T19:24:28.075Z,70.80
2019-03-04T19:26:56.528Z,69.90
2019-03-04T19:29:24.946Z,70.30
2019-03-04T19:31:53.446Z,69.30
2019-03-04T19:34:22.303Z,69.50
2019-03-04T19:36:50.750Z,69.20
2019-03-04T19:39:19.242Z,69.50
2019-03-04T19:41:47.690Z,69.90
2019-03-04T19:44:16.196Z,70.00
2019-03-04T19:46:44.647Z,69.50
2019-03-04T19:49:13.068Z,69.80
2019-03-04T19:51:41.669Z,68.80
2019-03-04T19:54:10.163Z,68.90
2019-03-04T19:56:38.810Z,69.30
2019-03-04T19:59:07.354Z,68.30
2019-03-04T20:01:35.786Z,68.40
2019-03-04T20:04:04.391Z,69.00
2019-03-04T20:06:32.831Z,69.20
2019-03-04T20:09:01.265Z,68.20
2019-03-04T20:11:29.901Z,68.90
2019-03-04T20:13:58.404Z,68.30
2019-03-04T20:16:26.866Z,67.50
2019-03-04T20:18:55.259Z,66.80
2019-03-04T20:21:23.714Z,67.30
2019-03-04T20:23:52.131Z,67.60
2019-03-04T20:26:20.602Z,67.40
2019-03-04T20:28:49.106Z,67.10
2019-03-04T20:31:17.734Z,68.00
2019-03-04T20:33:46.288Z,68.90
2019-03-04T20:36:14.813Z,68.80
2019-03-04T20:38:45.679Z,69.50
2019-03-04T20:41:14.175Z,69.70
2019-03-04T20:43:42.694Z,69.20
2019-03-04T20:46:11.118Z,70.20
2019-03-04T20:48:39.568Z,70.50
2019-03-04T20:51:08.040Z,70.10
2019-03-04T20:53:36.558Z,71.30
2019-03-04T20:56:05.048Z,72.00
2019-03-04T20:58:33.483Z,73.10
2019-03-04T21:01:01.907Z,73.40
2019-03-04T21:03:34.859Z,74.10
2019-03-04T21:06:00.992Z,74.60
2019-03-04T21:08:29.548Z,74.30
2019-03-04T21:10:58.272Z,73.70
2019-03-04T21:13:35.203Z,75.40
2019-03-04T21:15:57.203Z,75.60
2019-03-04T21:18:26.019Z,76.20
2019-03-04T21:20:54.646Z,76.10
2019-03-04T21:23:23.225Z,77.00
2019-03-04T21:26:00.778Z,77.10
2019-03-04T21:28:54.511Z,76.50
2019-03-04T21:31:49.944Z,77.20
2019-03-04T21:34:37.932Z,77.20
2019-03-04T21:37:15.205Z,78.00
2019-03-04T21:39:50.258Z,78.20
2019-03-04T21:42:37.523Z,78.70
2019-03-04T21:45:12.693Z,78.40
2019-03-04T21:47:50.305Z,79.10
2019-03-04T21:50:24.514Z,78.70
2019-03-04T21:53:01.697Z,79.10
2019-03-04T21:55:36.647Z,79.50
2019-03-04T21:58:05.538Z,79.00
2019-03-04T22:00:37.662Z,79.20
2019-03-04T22:03:09.143Z,78.30
2019-03-04T22:05:38.326Z,78.30
2019-03-04T22:08:06.913Z,79.10
2019-03-04T22:10:35.483Z,78.60
2019-03-04T22:13:04.342Z,78.10
2019-03-04T22:15:33.000Z,76.70
2019-03-04T22:18:01.542Z,76.50
2019-03-04T22:20:30.228Z,77.60
2019-03-04T22:22:58.714Z,77.40
2019-03-04T22:25:27.211Z,77.50
2019-03-04T22:27:55.728Z,77.10
2019-03-04T22:30:24.223Z,76.10
2019-03-04T22:32:52.806Z,75.80
2019-03-04T22:35:21.223Z,75.00
2019-03-04T22:37:49.899Z,74.90
2019-03-04T22:40:20.489Z,73.40
2019-03-04T22:42:48.929Z,73.70
2019-03-04T22:45:19.553Z,72.50
2019-03-04T22:47:49.651Z,72.00
2019-03-04T22:50:20.147Z,68.40
2019-03-04T22:52:48.649Z,67.10
2019-03-04T22:55:28.899Z,66.00
2019-03-04T22:57:57.339Z,65.70
2019-03-04T23:00:53.993Z,65.00
2019-03-04T23:03:24.927Z,65.70
2019-03-04T23:05:59.063Z,66.30
2019-03-04T23:08:27.494Z,66.80
2019-03-04T23:10:55.908Z,65.30
2019-03-04T23:13:53.210Z,64.50
2019-03-04T23:16:24.472Z,63.60
2019-03-04T23:18:52.912Z,64.40
2019-03-04T23:21:21.394Z,64.20
2019-03-04T23:23:49.831Z,63.80
2019-03-04T23:26:18.246Z,64.10
2019-03-04T23:28:46.699Z,64.30
2019-03-04T23:31:15.127Z,63.60
2019-03-04T23:33:43.687Z,64.70
2019-03-04T23:36:12.180Z,65.10
2019-03-04T23:38:40.615Z,64.50
2019-03-04T23:41:09.032Z,63.60
2019-03-04T23:43:37.557Z,63.80
2019-03-04T23:46:06.038Z,63.40
2019-03-04T23:48:34.574Z,63.40
2019-03-04T23:51:03.001Z,63.20
2019-03-04T23:53:31.499Z,63.40
2019-03-04T23:55:59.919Z,62.90
2019-03-04T23:58:28.338Z,62.80
